sensor_id;sensor_type;location;lat;lon;timestamp;temperature;humidity
74081;SHT31;62438;52.228;6.864;2022-08-19T00:01:08;16.26;92.77
74081;SHT31;62438;52.228;6.864;2022-08-19T00:03:08;16.28;92.64
74081;SHT31;62438;52.228;6.864;2022-08-19T00:05:10;16.26;92.51
74081;SHT31;62438;52.228;6.864;2022-08-19T00:07:11;16.30;92.57
74081;SHT31;62438;52.228;6.864;2022-08-19T00:09:16;16.21;92.46
74081;SHT31;62438;52.228;6.864;2022-08-19T00:11:17;16.24;92.65
74081;SHT31;62438;52.228;6.864;2022-08-19T00:13:17;16.18;92.76
74081;SHT31;62438;52.228;6.864;2022-08-19T00:15:20;16.09;92.86
74081;SHT31;62438;52.228;6.864;2022-08-19T00:17:26;16.06;93.03
74081;SHT31;62438;52.228;6.864;2022-08-19T00:19:27;16.12;93.04
74081;SHT31;62438;52.228;6.864;2022-08-19T00:21:28;16.10;92.99
74081;SHT31;62438;52.228;6.864;2022-08-19T00:23:28;16.05;92.79
74081;SHT31;62438;52.228;6.864;2022-08-19T00:25:30;16.06;92.98
74081;SHT31;62438;52.228;6.864;2022-08-19T00:27:30;16.00;93.22
74081;SHT31;62438;52.228;6.864;2022-08-19T00:29:31;16.00;93.43
74081;SHT31;62438;52.228;6.864;2022-08-19T00:31:32;15.99;93.19
74081;SHT31;62438;52.228;6.864;2022-08-19T00:33:33;15.96;93.44
74081;SHT31;62438;52.228;6.864;2022-08-19T00:35:34;15.92;93.22
74081;SHT31;62438;52.228;6.864;2022-08-19T00:37:34;15.93;93.42
74081;SHT31;62438;52.228;6.864;2022-08-19T00:39:35;15.96;93.42
74081;SHT31;62438;52.228;6.864;2022-08-19T00:41:39;15.95;93.54
74081;SHT31;62438;52.228;6.864;2022-08-19T00:43:40;15.92;93.57
74081;SHT31;62438;52.228;6.864;2022-08-19T00:45:41;15.90;93.62
74081;SHT31;62438;52.228;6.864;2022-08-19T00:47:44;15.86;93.63
74081;SHT31;62438;52.228;6.864;2022-08-19T00:49:49;15.97;93.73
74081;SHT31;62438;52.228;6.864;2022-08-19T00:51:53;15.96;93.40
74081;SHT31;62438;52.228;6.864;2022-08-19T00:53:56;16.00;93.53
74081;SHT31;62438;52.228;6.864;2022-08-19T00:55:58;16.03;93.37
74081;SHT31;62438;52.228;6.864;2022-08-19T00:58:04;16.03;93.14
74081;SHT31;62438;52.228;6.864;2022-08-19T01:00:16;15.99;93.41
74081;SHT31;62438;52.228;6.864;2022-08-19T01:02:18;15.96;93.60
74081;SHT31;62438;52.228;6.864;2022-08-19T01:04:18;15.92;93.58
74081;SHT31;62438;52.228;6.864;2022-08-19T01:06:19;15.87;93.79
74081;SHT31;62438;52.228;6.864;2022-08-19T01:08:21;15.89;93.84
74081;SHT31;62438;52.228;6.864;2022-08-19T01:10:25;15.87;93.73
74081;SHT31;62438;52.228;6.864;2022-08-19T01:12:26;15.87;93.88
74081;SHT31;62438;52.228;6.864;2022-08-19T01:14:27;15.86;93.93
74081;SHT31;62438;52.228;6.864;2022-08-19T01:16:30;15.85;93.86
74081;SHT31;62438;52.228;6.864;2022-08-19T01:18:32;15.85;93.91
74081;SHT31;62438;52.228;6.864;2022-08-19T01:20:36;15.81;94.06
74081;SHT31;62438;52.228;6.864;2022-08-19T01:22:45;15.79;94.05
74081;SHT31;62438;52.228;6.864;2022-08-19T01:24:46;15.72;93.91
74081;SHT31;62438;52.228;6.864;2022-08-19T01:26:47;15.72;94.19
74081;SHT31;62438;52.228;6.864;2022-08-19T01:28:51;15.75;94.35
74081;SHT31;62438;52.228;6.864;2022-08-19T01:30:52;15.78;93.98
74081;SHT31;62438;52.228;6.864;2022-08-19T01:32:54;15.69;94.04
74081;SHT31;62438;52.228;6.864;2022-08-19T01:34:55;15.69;94.18
74081;SHT31;62438;52.228;6.864;2022-08-19T01:36:55;15.65;94.42
74081;SHT31;62438;52.228;6.864;2022-08-19T01:38:57;15.65;94.50
74081;SHT31;62438;52.228;6.864;2022-08-19T01:40:58;15.66;94.79
74081;SHT31;62438;52.228;6.864;2022-08-19T01:42:59;15.63;94.56
74081;SHT31;62438;52.228;6.864;2022-08-19T01:45:00;15.69;95.02
74081;SHT31;62438;52.228;6.864;2022-08-19T01:47:00;15.75;94.93
74081;SHT31;62438;52.228;6.864;2022-08-19T01:49:03;15.70;94.47
74081;SHT31;62438;52.228;6.864;2022-08-19T01:51:04;15.66;94.47
74081;SHT31;62438;52.228;6.864;2022-08-19T01:53:07;15.63;94.43
74081;SHT31;62438;52.228;6.864;2022-08-19T01:55:13;15.62;94.81
74081;SHT31;62438;52.228;6.864;2022-08-19T01:57:14;15.59;94.76
74081;SHT31;62438;52.228;6.864;2022-08-19T01:59:17;15.59;94.97
74081;SHT31;62438;52.228;6.864;2022-08-19T02:01:19;15.49;94.68
74081;SHT31;62438;52.228;6.864;2022-08-19T02:03:19;15.54;95.16
74081;SHT31;62438;52.228;6.864;2022-08-19T02:05:20;15.51;95.25
74081;SHT31;62438;52.228;6.864;2022-08-19T02:07:21;15.42;94.91
74081;SHT31;62438;52.228;6.864;2022-08-19T02:09:22;15.42;95.20
74081;SHT31;62438;52.228;6.864;2022-08-19T02:11:26;15.39;95.33
74081;SHT31;62438;52.228;6.864;2022-08-19T02:13:27;15.42;95.35
74081;SHT31;62438;52.228;6.864;2022-08-19T02:15:27;15.49;95.35
74081;SHT31;62438;52.228;6.864;2022-08-19T02:17:29;15.42;95.36
74081;SHT31;62438;52.228;6.864;2022-08-19T02:19:29;15.42;95.38
74081;SHT31;62438;52.228;6.864;2022-08-19T02:21:33;15.42;95.37
74081;SHT31;62438;52.228;6.864;2022-08-19T02:23:33;15.38;95.34
74081;SHT31;62438;52.228;6.864;2022-08-19T02:25:34;15.41;95.35
74081;SHT31;62438;52.228;6.864;2022-08-19T02:27:34;15.51;95.57
74081;SHT31;62438;52.228;6.864;2022-08-19T02:29:35;15.48;95.72
74081;SHT31;62438;52.228;6.864;2022-08-19T02:31:35;15.54;95.63
74081;SHT31;62438;52.228;6.864;2022-08-19T02:33:36;15.58;95.79
74081;SHT31;62438;52.228;6.864;2022-08-19T02:35:41;15.56;95.64
74081;SHT31;62438;52.228;6.864;2022-08-19T02:37:42;15.66;95.93
74081;SHT31;62438;52.228;6.864;2022-08-19T02:40:02;15.87;95.65
74081;SHT31;62438;52.228;6.864;2022-08-19T02:42:03;15.93;95.35
74081;SHT31;62438;52.228;6.864;2022-08-19T02:44:04;15.90;94.88
74081;SHT31;62438;52.228;6.864;2022-08-19T02:46:19;15.93;94.93
74081;SHT31;62438;52.228;6.864;2022-08-19T02:48:23;15.90;94.94
74081;SHT31;62438;52.228;6.864;2022-08-19T02:50:24;15.85;95.02
74081;SHT31;62438;52.228;6.864;2022-08-19T02:52:24;15.87;95.26
74081;SHT31;62438;52.228;6.864;2022-08-19T02:54:25;15.82;94.99
74081;SHT31;62438;52.228;6.864;2022-08-19T02:56:26;15.70;95.02
74081;SHT31;62438;52.228;6.864;2022-08-19T02:58:27;15.65;95.10
74081;SHT31;62438;52.228;6.864;2022-08-19T03:00:27;15.59;95.24
74081;SHT31;62438;52.228;6.864;2022-08-19T03:02:28;15.54;95.35
74081;SHT31;62438;52.228;6.864;2022-08-19T03:04:29;15.51;95.29
74081;SHT31;62438;52.228;6.864;2022-08-19T03:06:30;15.47;95.46
74081;SHT31;62438;52.228;6.864;2022-08-19T03:08:30;15.44;95.55
74081;SHT31;62438;52.228;6.864;2022-08-19T03:10:32;15.38;95.60
74081;SHT31;62438;52.228;6.864;2022-08-19T03:12:36;15.34;95.67
74081;SHT31;62438;52.228;6.864;2022-08-19T03:14:37;15.32;95.79
74081;SHT31;62438;52.228;6.864;2022-08-19T03:16:46;15.34;96.06
74081;SHT31;62438;52.228;6.864;2022-08-19T03:18:47;15.30;95.89
74081;SHT31;62438;52.228;6.864;2022-08-19T03:20:49;15.28;95.89
74081;SHT31;62438;52.228;6.864;2022-08-19T03:22:50;15.23;95.67
74081;SHT31;62438;52.228;6.864;2022-08-19T03:24:50;15.23;95.77
74081;SHT31;62438;52.228;6.864;2022-08-19T03:26:53;15.21;95.85
74081;SHT31;62438;52.228;6.864;2022-08-19T03:28:57;15.14;95.76
74081;SHT31;62438;52.228;6.864;2022-08-19T03:31:01;15.10;95.68
74081;SHT31;62438;52.228;6.864;2022-08-19T03:33:02;15.08;95.99
74081;SHT31;62438;52.228;6.864;2022-08-19T03:35:03;15.08;96.03
74081;SHT31;62438;52.228;6.864;2022-08-19T03:37:07;15.06;96.13
74081;SHT31;62438;52.228;6.864;2022-08-19T03:39:07;15.03;96.12
74081;SHT31;62438;52.228;6.864;2022-08-19T03:41:13;15.01;96.13
74081;SHT31;62438;52.228;6.864;2022-08-19T03:43:15;14.98;96.25
74081;SHT31;62438;52.228;6.864;2022-08-19T03:45:17;14.98;96.36
74081;SHT31;62438;52.228;6.864;2022-08-19T03:47:18;15.00;96.36
74081;SHT31;62438;52.228;6.864;2022-08-19T03:49:19;14.93;96.25
74081;SHT31;62438;52.228;6.864;2022-08-19T03:51:25;14.94;96.34
74081;SHT31;62438;52.228;6.864;2022-08-19T03:53:27;14.94;96.46
74081;SHT31;62438;52.228;6.864;2022-08-19T03:55:28;14.98;96.56
74081;SHT31;62438;52.228;6.864;2022-08-19T03:57:28;15.03;96.57
74081;SHT31;62438;52.228;6.864;2022-08-19T03:59:33;15.03;96.65
74081;SHT31;62438;52.228;6.864;2022-08-19T04:01:34;15.08;96.56
74081;SHT31;62438;52.228;6.864;2022-08-19T04:03:36;15.11;96.38
74081;SHT31;62438;52.228;6.864;2022-08-19T04:05:36;15.16;96.56
74081;SHT31;62438;52.228;6.864;2022-08-19T04:07:37;15.20;96.49
74081;SHT31;62438;52.228;6.864;2022-08-19T04:09:38;15.23;96.45
74081;SHT31;62438;52.228;6.864;2022-08-19T04:11:50;15.26;96.10
74081;SHT31;62438;52.228;6.864;2022-08-19T04:13:54;15.24;96.03
74081;SHT31;62438;52.228;6.864;2022-08-19T04:15:54;15.24;95.90
74081;SHT31;62438;52.228;6.864;2022-08-19T04:17:55;15.24;95.97
74081;SHT31;62438;52.228;6.864;2022-08-19T04:19:55;15.21;95.77
74081;SHT31;62438;52.228;6.864;2022-08-19T04:21:56;15.20;95.77
74081;SHT31;62438;52.228;6.864;2022-08-19T04:23:57;15.14;95.77
74081;SHT31;62438;52.228;6.864;2022-08-19T04:25:57;15.12;95.82
74081;SHT31;62438;52.228;6.864;2022-08-19T04:27:58;15.08;95.90
74081;SHT31;62438;52.228;6.864;2022-08-19T04:29:58;15.04;95.91
74081;SHT31;62438;52.228;6.864;2022-08-19T04:31:59;15.04;96.15
74081;SHT31;62438;52.228;6.864;2022-08-19T04:34:00;15.04;96.16
74081;SHT31;62438;52.228;6.864;2022-08-19T04:36:02;15.04;96.26
74081;SHT31;62438;52.228;6.864;2022-08-19T04:38:03;15.01;96.19
74081;SHT31;62438;52.228;6.864;2022-08-19T04:40:05;15.00;96.29
74081;SHT31;62438;52.228;6.864;2022-08-19T04:42:24;14.97;96.22
74081;SHT31;62438;52.228;6.864;2022-08-19T04:44:40;14.96;96.09
74081;SHT31;62438;52.228;6.864;2022-08-19T04:46:40;14.94;96.29
74081;SHT31;62438;52.228;6.864;2022-08-19T04:48:41;14.93;96.19
74081;SHT31;62438;52.228;6.864;2022-08-19T04:50:43;14.91;96.25
74081;SHT31;62438;52.228;6.864;2022-08-19T04:52:43;14.93;96.28
74081;SHT31;62438;52.228;6.864;2022-08-19T04:54:44;14.93;96.33
74081;SHT31;62438;52.228;6.864;2022-08-19T04:56:44;14.94;96.45
74081;SHT31;62438;52.228;6.864;2022-08-19T04:58:45;14.97;96.49
74081;SHT31;62438;52.228;6.864;2022-08-19T05:00:45;15.00;96.34
74081;SHT31;62438;52.228;6.864;2022-08-19T05:02:46;15.04;96.31
74081;SHT31;62438;52.228;6.864;2022-08-19T05:04:46;15.08;96.34
74081;SHT31;62438;52.228;6.864;2022-08-19T05:06:49;15.10;96.27
74081;SHT31;62438;52.228;6.864;2022-08-19T05:08:49;15.14;96.09
74081;SHT31;62438;52.228;6.864;2022-08-19T05:10:51;15.16;96.11
74081;SHT31;62438;52.228;6.864;2022-08-19T05:12:54;15.16;96.08
74081;SHT31;62438;52.228;6.864;2022-08-19T05:14:56;15.18;95.97
74081;SHT31;62438;52.228;6.864;2022-08-19T05:16:57;15.20;96.02
74081;SHT31;62438;52.228;6.864;2022-08-19T05:18:57;15.24;96.09
74081;SHT31;62438;52.228;6.864;2022-08-19T05:21:18;15.30;95.95
74081;SHT31;62438;52.228;6.864;2022-08-19T05:23:38;15.34;95.97
74081;SHT31;62438;52.228;6.864;2022-08-19T05:25:39;15.44;95.84
74081;SHT31;62438;52.228;6.864;2022-08-19T05:27:41;15.59;95.82
74081;SHT31;62438;52.228;6.864;2022-08-19T05:29:42;15.73;96.26
74081;SHT31;62438;52.228;6.864;2022-08-19T05:31:43;15.86;95.70
74081;SHT31;62438;52.228;6.864;2022-08-19T05:33:44;16.03;95.66
74081;SHT31;62438;52.228;6.864;2022-08-19T05:35:44;16.21;95.11
74081;SHT31;62438;52.228;6.864;2022-08-19T05:37:46;16.41;94.17
74081;SHT31;62438;52.228;6.864;2022-08-19T05:39:46;16.57;93.67
74081;SHT31;62438;52.228;6.864;2022-08-19T05:41:53;16.63;93.01
74081;SHT31;62438;52.228;6.864;2022-08-19T05:43:58;16.67;93.42
74081;SHT31;62438;52.228;6.864;2022-08-19T05:46:01;16.72;93.21
74081;SHT31;62438;52.228;6.864;2022-08-19T05:48:01;16.71;93.05
74081;SHT31;62438;52.228;6.864;2022-08-19T05:50:03;16.69;92.99
74081;SHT31;62438;52.228;6.864;2022-08-19T05:52:06;16.69;93.00
74081;SHT31;62438;52.228;6.864;2022-08-19T05:54:07;16.71;93.18
74081;SHT31;62438;52.228;6.864;2022-08-19T05:56:12;16.75;92.82
74081;SHT31;62438;52.228;6.864;2022-08-19T05:58:16;16.72;92.96
74081;SHT31;62438;52.228;6.864;2022-08-19T06:00:17;16.71;93.21
74081;SHT31;62438;52.228;6.864;2022-08-19T06:02:17;16.65;93.56
74081;SHT31;62438;52.228;6.864;2022-08-19T06:04:18;16.63;93.69
74081;SHT31;62438;52.228;6.864;2022-08-19T06:06:19;16.75;93.31
74081;SHT31;62438;52.228;6.864;2022-08-19T06:08:20;16.84;92.59
74081;SHT31;62438;52.228;6.864;2022-08-19T06:10:20;16.82;93.26
74081;SHT31;62438;52.228;6.864;2022-08-19T06:12:21;16.76;93.28
74081;SHT31;62438;52.228;6.864;2022-08-19T06:14:33;16.74;93.69
74081;SHT31;62438;52.228;6.864;2022-08-19T06:16:36;16.79;93.23
74081;SHT31;62438;52.228;6.864;2022-08-19T06:18:37;16.81;93.33
74081;SHT31;62438;52.228;6.864;2022-08-19T06:20:38;16.82;93.39
74081;SHT31;62438;52.228;6.864;2022-08-19T06:22:44;16.95;93.06
74081;SHT31;62438;52.228;6.864;2022-08-19T06:24:45;17.02;92.69
74081;SHT31;62438;52.228;6.864;2022-08-19T06:26:48;17.08;92.33
74081;SHT31;62438;52.228;6.864;2022-08-19T06:28:48;17.16;92.89
74081;SHT31;62438;52.228;6.864;2022-08-19T06:30:49;17.33;91.98
74081;SHT31;62438;52.228;6.864;2022-08-19T06:32:51;17.46;91.69
74081;SHT31;62438;52.228;6.864;2022-08-19T06:34:51;17.59;91.89
74081;SHT31;62438;52.228;6.864;2022-08-19T06:36:52;17.67;90.36
74081;SHT31;62438;52.228;6.864;2022-08-19T06:38:53;17.73;90.49
74081;SHT31;62438;52.228;6.864;2022-08-19T06:41:04;17.94;89.77
74081;SHT31;62438;52.228;6.864;2022-08-19T06:43:05;18.08;89.49
74081;SHT31;62438;52.228;6.864;2022-08-19T06:45:06;18.24;89.07
74081;SHT31;62438;52.228;6.864;2022-08-19T06:47:11;18.33;88.55
74081;SHT31;62438;52.228;6.864;2022-08-19T06:49:12;18.42;88.69
74081;SHT31;62438;52.228;6.864;2022-08-19T06:51:15;18.43;88.37
74081;SHT31;62438;52.228;6.864;2022-08-19T06:53:18;18.60;88.74
74081;SHT31;62438;52.228;6.864;2022-08-19T06:55:19;18.73;87.17
74081;SHT31;62438;52.228;6.864;2022-08-19T06:57:20;18.90;86.64
74081;SHT31;62438;52.228;6.864;2022-08-19T06:59:22;18.96;86.27
74081;SHT31;62438;52.228;6.864;2022-08-19T07:01:26;19.06;86.61
74081;SHT31;62438;52.228;6.864;2022-08-19T07:03:31;19.19;85.83
74081;SHT31;62438;52.228;6.864;2022-08-19T07:05:37;19.31;85.24
74081;SHT31;62438;52.228;6.864;2022-08-19T07:07:38;19.44;84.31
74081;SHT31;62438;52.228;6.864;2022-08-19T07:09:41;19.42;84.44
74081;SHT31;62438;52.228;6.864;2022-08-19T07:11:49;19.56;84.37
74081;SHT31;62438;52.228;6.864;2022-08-19T07:13:50;19.75;84.30
74081;SHT31;62438;52.228;6.864;2022-08-19T07:15:51;19.86;83.01
74081;SHT31;62438;52.228;6.864;2022-08-19T07:17:51;19.89;82.43
74081;SHT31;62438;52.228;6.864;2022-08-19T07:19:53;19.97;83.44
74081;SHT31;62438;52.228;6.864;2022-08-19T07:21:54;20.03;82.50
74081;SHT31;62438;52.228;6.864;2022-08-19T07:23:56;20.04;81.49
74081;SHT31;62438;52.228;6.864;2022-08-19T07:25:57;20.07;81.84
74081;SHT31;62438;52.228;6.864;2022-08-19T07:27:57;20.23;82.41
74081;SHT31;62438;52.228;6.864;2022-08-19T07:29:58;20.34;81.06
74081;SHT31;62438;52.228;6.864;2022-08-19T07:32:00;20.45;81.09
74081;SHT31;62438;52.228;6.864;2022-08-19T07:34:02;20.56;80.19
74081;SHT31;62438;52.228;6.864;2022-08-19T07:36:04;20.72;80.29
74081;SHT31;62438;52.228;6.864;2022-08-19T07:38:05;20.81;80.17
74081;SHT31;62438;52.228;6.864;2022-08-19T07:40:07;20.82;79.42
74081;SHT31;62438;52.228;6.864;2022-08-19T07:42:11;20.89;78.92
74081;SHT31;62438;52.228;6.864;2022-08-19T07:44:14;20.89;78.72
74081;SHT31;62438;52.228;6.864;2022-08-19T07:46:16;21.13;78.15
74081;SHT31;62438;52.228;6.864;2022-08-19T07:48:17;21.16;78.35
74081;SHT31;62438;52.228;6.864;2022-08-19T07:50:18;21.20;77.73
74081;SHT31;62438;52.228;6.864;2022-08-19T07:52:19;21.31;77.63
74081;SHT31;62438;52.228;6.864;2022-08-19T07:54:22;21.34;77.60
74081;SHT31;62438;52.228;6.864;2022-08-19T07:56:23;21.39;76.73
74081;SHT31;62438;52.228;6.864;2022-08-19T07:58:24;21.54;76.71
74081;SHT31;62438;52.228;6.864;2022-08-19T08:00:25;21.61;76.97
74081;SHT31;62438;52.228;6.864;2022-08-19T08:02:26;21.70;76.71
74081;SHT31;62438;52.228;6.864;2022-08-19T08:04:28;21.70;76.49
74081;SHT31;62438;52.228;6.864;2022-08-19T08:06:47;21.55;77.27
74081;SHT31;62438;52.228;6.864;2022-08-19T08:09:07;21.78;76.34
74081;SHT31;62438;52.228;6.864;2022-08-19T08:11:11;21.81;76.32
74081;SHT31;62438;52.228;6.864;2022-08-19T08:13:12;21.77;76.44
74081;SHT31;62438;52.228;6.864;2022-08-19T08:15:15;21.89;75.97
74081;SHT31;62438;52.228;6.864;2022-08-19T08:17:21;21.92;75.45
74081;SHT31;62438;52.228;6.864;2022-08-19T08:19:24;22.06;74.56
74081;SHT31;62438;52.228;6.864;2022-08-19T08:21:25;22.22;74.85
74081;SHT31;62438;52.228;6.864;2022-08-19T08:23:26;22.35;74.79
74081;SHT31;62438;52.228;6.864;2022-08-19T08:25:26;22.39;74.41
74081;SHT31;62438;52.228;6.864;2022-08-19T08:27:26;22.47;74.94
74081;SHT31;62438;52.228;6.864;2022-08-19T08:29:30;22.52;73.28
74081;SHT31;62438;52.228;6.864;2022-08-19T08:31:31;22.63;73.03
74081;SHT31;62438;52.228;6.864;2022-08-19T08:33:32;22.77;72.72
74081;SHT31;62438;52.228;6.864;2022-08-19T08:35:33;22.91;72.36
74081;SHT31;62438;52.228;6.864;2022-08-19T08:37:33;22.97;71.30
74081;SHT31;62438;52.228;6.864;2022-08-19T08:39:34;22.93;71.26
74081;SHT31;62438;52.228;6.864;2022-08-19T08:43:40;23.18;69.56
74081;SHT31;62438;52.228;6.864;2022-08-19T08:45:52;23.19;70.50
74081;SHT31;62438;52.228;6.864;2022-08-19T08:47:55;22.96;70.42
74081;SHT31;62438;52.228;6.864;2022-08-19T08:50:25;22.94;71.17
74081;SHT31;62438;52.228;6.864;2022-08-19T08:52:28;22.80;71.54
74081;SHT31;62438;52.228;6.864;2022-08-19T08:54:34;22.71;71.56
74081;SHT31;62438;52.228;6.864;2022-08-19T08:56:38;22.84;70.90
74081;SHT31;62438;52.228;6.864;2022-08-19T09:00:47;23.07;70.28
74081;SHT31;62438;52.228;6.864;2022-08-19T09:02:48;23.17;68.00
74081;SHT31;62438;52.228;6.864;2022-08-19T09:04:54;23.26;69.40
74081;SHT31;62438;52.228;6.864;2022-08-19T09:09:16;23.70;67.27
74081;SHT31;62438;52.228;6.864;2022-08-19T09:16:54;23.72;64.37
74081;SHT31;62438;52.228;6.864;2022-08-19T09:18:58;23.67;64.18
74081;SHT31;62438;52.228;6.864;2022-08-19T09:21:00;23.80;63.20
74081;SHT31;62438;52.228;6.864;2022-08-19T09:23:01;23.82;61.70
74081;SHT31;62438;52.228;6.864;2022-08-19T09:25:02;23.80;62.48
74081;SHT31;62438;52.228;6.864;2022-08-19T09:27:03;23.70;62.98
74081;SHT31;62438;52.228;6.864;2022-08-19T09:29:04;23.89;63.06
74081;SHT31;62438;52.228;6.864;2022-08-19T09:31:05;24.21;64.19
74081;SHT31;62438;52.228;6.864;2022-08-19T09:33:06;24.16;62.27
74081;SHT31;62438;52.228;6.864;2022-08-19T09:35:07;24.30;61.83
74081;SHT31;62438;52.228;6.864;2022-08-19T09:37:07;24.24;61.79
74081;SHT31;62438;52.228;6.864;2022-08-19T09:39:08;24.47;61.96
74081;SHT31;62438;52.228;6.864;2022-08-19T09:41:20;24.55;59.21
74081;SHT31;62438;52.228;6.864;2022-08-19T09:43:20;24.72;59.77
74081;SHT31;62438;52.228;6.864;2022-08-19T09:45:21;24.68;59.90
74081;SHT31;62438;52.228;6.864;2022-08-19T09:47:22;24.78;59.33
74081;SHT31;62438;52.228;6.864;2022-08-19T09:49:22;24.57;60.13
74081;SHT31;62438;52.228;6.864;2022-08-19T09:51:24;24.61;57.24
74081;SHT31;62438;52.228;6.864;2022-08-19T09:53:26;24.83;59.40
74081;SHT31;62438;52.228;6.864;2022-08-19T09:55:26;24.86;60.47
74081;SHT31;62438;52.228;6.864;2022-08-19T09:57:27;24.88;60.21
74081;SHT31;62438;52.228;6.864;2022-08-19T09:59:27;25.00;58.55
74081;SHT31;62438;52.228;6.864;2022-08-19T10:01:30;25.16;58.08
74081;SHT31;62438;52.228;6.864;2022-08-19T10:03:32;25.22;58.01
74081;SHT31;62438;52.228;6.864;2022-08-19T10:05:32;25.51;58.38
74081;SHT31;62438;52.228;6.864;2022-08-19T10:07:48;25.26;57.37
74081;SHT31;62438;52.228;6.864;2022-08-19T10:09:48;25.37;58.07
74081;SHT31;62438;52.228;6.864;2022-08-19T10:11:49;25.43;58.41
74081;SHT31;62438;52.228;6.864;2022-08-19T10:13:50;25.68;59.35
74081;SHT31;62438;52.228;6.864;2022-08-19T10:15:51;25.77;57.25
74081;SHT31;62438;52.228;6.864;2022-08-19T10:17:51;26.02;58.20
74081;SHT31;62438;52.228;6.864;2022-08-19T10:19:52;26.33;57.21
74081;SHT31;62438;52.228;6.864;2022-08-19T10:21:53;26.21;56.92
74081;SHT31;62438;52.228;6.864;2022-08-19T10:23:57;26.40;56.77
74081;SHT31;62438;52.228;6.864;2022-08-19T10:25:59;25.94;56.47
74081;SHT31;62438;52.228;6.864;2022-08-19T10:28:00;25.43;57.49
74081;SHT31;62438;52.228;6.864;2022-08-19T10:30:01;25.44;56.12
74081;SHT31;62438;52.228;6.864;2022-08-19T10:32:04;25.19;57.80
74081;SHT31;62438;52.228;6.864;2022-08-19T10:34:06;24.85;59.20
74081;SHT31;62438;52.228;6.864;2022-08-19T10:36:12;24.79;59.87
74081;SHT31;62438;52.228;6.864;2022-08-19T10:38:15;25.34;57.62
74081;SHT31;62438;52.228;6.864;2022-08-19T10:40:15;26.04;55.54
74081;SHT31;62438;52.228;6.864;2022-08-19T10:42:16;26.21;55.37
74081;SHT31;62438;52.228;6.864;2022-08-19T10:44:18;25.40;57.35
74081;SHT31;62438;52.228;6.864;2022-08-19T10:46:21;25.13;57.49
74081;SHT31;62438;52.228;6.864;2022-08-19T10:48:22;26.16;54.94
74081;SHT31;62438;52.228;6.864;2022-08-19T10:50:22;26.73;51.78
74081;SHT31;62438;52.228;6.864;2022-08-19T10:52:44;25.68;55.11
74081;SHT31;62438;52.228;6.864;2022-08-19T10:54:44;25.31;56.46
74081;SHT31;62438;52.228;6.864;2022-08-19T10:57:04;26.15;55.41
74081;SHT31;62438;52.228;6.864;2022-08-19T10:59:04;26.59;53.67
74081;SHT31;62438;52.228;6.864;2022-08-19T11:01:05;26.93;51.54
74081;SHT31;62438;52.228;6.864;2022-08-19T11:03:06;27.31;52.05
74081;SHT31;62438;52.228;6.864;2022-08-19T11:05:07;27.42;51.20
74081;SHT31;62438;52.228;6.864;2022-08-19T11:07:10;27.92;50.12
74081;SHT31;62438;52.228;6.864;2022-08-19T11:09:12;28.01;49.35
74081;SHT31;62438;52.228;6.864;2022-08-19T11:11:12;27.38;51.03
74081;SHT31;62438;52.228;6.864;2022-08-19T11:13:13;26.80;52.98
74081;SHT31;62438;52.228;6.864;2022-08-19T11:15:14;27.30;51.18
74081;SHT31;62438;52.228;6.864;2022-08-19T11:17:14;27.97;50.82
74081;SHT31;62438;52.228;6.864;2022-08-19T11:19:16;28.44;49.29
74081;SHT31;62438;52.228;6.864;2022-08-19T11:21:26;28.28;48.07
74081;SHT31;62438;52.228;6.864;2022-08-19T11:23:27;28.40;47.76
74081;SHT31;62438;52.228;6.864;2022-08-19T11:25:27;28.68;47.52
74081;SHT31;62438;52.228;6.864;2022-08-19T11:27:28;28.95;46.88
74081;SHT31;62438;52.228;6.864;2022-08-19T11:29:29;28.64;46.49
74081;SHT31;62438;52.228;6.864;2022-08-19T11:31:32;28.47;47.38
74081;SHT31;62438;52.228;6.864;2022-08-19T11:33:33;28.61;46.17
74081;SHT31;62438;52.228;6.864;2022-08-19T11:35:33;28.51;47.56
74081;SHT31;62438;52.228;6.864;2022-08-19T11:37:34;27.99;47.86
74081;SHT31;62438;52.228;6.864;2022-08-19T11:39:38;27.01;49.88
74081;SHT31;62438;52.228;6.864;2022-08-19T11:41:38;26.46;50.99
74081;SHT31;62438;52.228;6.864;2022-08-19T11:43:39;26.24;51.96
74081;SHT31;62438;52.228;6.864;2022-08-19T11:45:39;26.18;52.38
74081;SHT31;62438;52.228;6.864;2022-08-19T11:47:40;26.09;51.68
74081;SHT31;62438;52.228;6.864;2022-08-19T11:49:40;26.35;52.09
74081;SHT31;62438;52.228;6.864;2022-08-19T11:51:42;26.87;47.23
74081;SHT31;62438;52.228;6.864;2022-08-19T11:53:43;27.76;47.63
74081;SHT31;62438;52.228;6.864;2022-08-19T11:55:43;28.22;46.06
74081;SHT31;62438;52.228;6.864;2022-08-19T11:57:44;28.64;45.08
74081;SHT31;62438;52.228;6.864;2022-08-19T11:59:51;28.62;43.07
74081;SHT31;62438;52.228;6.864;2022-08-19T12:01:52;29.00;44.49
74081;SHT31;62438;52.228;6.864;2022-08-19T12:03:54;29.23;43.66
74081;SHT31;62438;52.228;6.864;2022-08-19T12:05:55;28.45;43.28
74081;SHT31;62438;52.228;6.864;2022-08-19T12:07:55;28.07;45.05
74081;SHT31;62438;52.228;6.864;2022-08-19T12:09:56;28.40;42.90
74081;SHT31;62438;52.228;6.864;2022-08-19T12:11:56;28.61;42.51
74081;SHT31;62438;52.228;6.864;2022-08-19T12:13:57;29.07;43.20
74081;SHT31;62438;52.228;6.864;2022-08-19T12:15:57;28.47;40.32
74081;SHT31;62438;52.228;6.864;2022-08-19T12:17:58;28.31;42.09
74081;SHT31;62438;52.228;6.864;2022-08-19T12:19:59;28.71;42.92
74081;SHT31;62438;52.228;6.864;2022-08-19T12:22:00;28.78;40.48
74081;SHT31;62438;52.228;6.864;2022-08-19T12:24:06;29.19;40.99
74081;SHT31;62438;52.228;6.864;2022-08-19T12:26:09;29.34;40.75
74081;SHT31;62438;52.228;6.864;2022-08-19T12:28:10;28.83;40.46
74081;SHT31;62438;52.228;6.864;2022-08-19T12:30:11;29.19;40.06
74081;SHT31;62438;52.228;6.864;2022-08-19T12:32:12;28.96;41.00
74081;SHT31;62438;52.228;6.864;2022-08-19T12:34:13;28.91;40.38
74081;SHT31;62438;52.228;6.864;2022-08-19T12:36:14;29.16;41.04
74081;SHT31;62438;52.228;6.864;2022-08-19T12:38:15;29.60;41.71
74081;SHT31;62438;52.228;6.864;2022-08-19T12:40:16;29.54;38.04
74081;SHT31;62438;52.228;6.864;2022-08-19T12:42:18;29.46;40.60
74081;SHT31;62438;52.228;6.864;2022-08-19T12:44:19;29.12;40.32
74081;SHT31;62438;52.228;6.864;2022-08-19T12:46:19;28.89;40.87
74081;SHT31;62438;52.228;6.864;2022-08-19T12:48:20;28.79;40.10
74081;SHT31;62438;52.228;6.864;2022-08-19T12:50:21;28.72;39.97
74081;SHT31;62438;52.228;6.864;2022-08-19T12:52:23;28.86;40.48
74081;SHT31;62438;52.228;6.864;2022-08-19T12:54:24;29.26;38.09
74081;SHT31;62438;52.228;6.864;2022-08-19T12:56:24;29.36;40.04
74081;SHT31;62438;52.228;6.864;2022-08-19T12:58:26;29.29;38.68
74081;SHT31;62438;52.228;6.864;2022-08-19T13:00:27;29.61;38.81
74081;SHT31;62438;52.228;6.864;2022-08-19T13:02:28;29.68;38.81
74081;SHT31;62438;52.228;6.864;2022-08-19T13:04:28;29.65;37.73